createdAt,value
2022-08-19T00:01:52.923Z,20.30
2022-08-19T00:04:24.352Z,20.30
2022-08-19T00:06:52.676Z,20.20
2022-08-19T00:09:23.016Z,20.20
2022-08-19T00:11:52.042Z,20.20
2022-08-19T00:14:21.779Z,20.10
2022-08-19T00:16:52.534Z,20.10
2022-08-19T00:19:20.730Z,20.10
2022-08-19T00:21:49.116Z,20.00
2022-08-19T00:24:17.909Z,20.00
2022-08-19T00:26:46.774Z,19.90
2022-08-19T00:29:17.955Z,19.90
2022-08-19T00:31:47.031Z,19.90
2022-08-19T00:34:17.662Z,19.80
2022-08-19T00:36:45.918Z,19.70
2022-08-19T00:39:14.895Z,19.60
2022-08-19T00:41:43.259Z,19.40
2022-08-19T00:44:13.625Z,19.30
2022-08-19T00:46:44.770Z,19.30
2022-08-19T00:49:29.953Z,19.30
2022-08-19T00:52:02.648Z,19.20
2022-08-19T00:54:32.484Z,19.10
2022-08-19T00:57:01.545Z,19.10
2022-08-19T00:59:56.468Z,19.00
2022-08-19T01:02:19.624Z,18.90
2022-08-19T01:04:50.356Z,18.80
2022-08-19T01:07:19.549Z,18.80
2022-08-19T01:09:48.302Z,18.70
2022-08-19T01:12:17.244Z,18.70
2022-08-19T01:14:45.606Z,18.80
2022-08-19T01:17:14.577Z,18.80
2022-08-19T01:19:45.116Z,18.90
2022-08-19T01:22:27.717Z,18.90
2022-08-19T01:25:00.040Z,18.90
2022-08-19T01:27:30.806Z,18.90
2022-08-19T01:30:13.438Z,18.90
2022-08-19T01:32:41.613Z,18.90
2022-08-19T01:35:10.343Z,18.90
2022-08-19T01:37:46.223Z,18.90
2022-08-19T01:40:17.980Z,18.90
2022-08-19T01:42:46.220Z,18.90
2022-08-19T01:45:14.434Z,18.90
2022-08-19T01:47:42.775Z,18.90
2022-08-19T01:50:20.224Z,18.80
2022-08-19T01:52:50.255Z,18.80
2022-08-19T01:55:33.644Z,18.80
2022-08-19T01:58:07.249Z,18.80
2022-08-19T02:00:35.619Z,18.80
2022-08-19T02:03:03.755Z,18.80
2022-08-19T02:05:32.883Z,18.90
2022-08-19T02:08:01.064Z,18.80
2022-08-19T02:10:29.196Z,18.80
2022-08-19T02:12:58.695Z,18.80
2022-08-19T02:15:27.636Z,18.70
2022-08-19T02:17:55.779Z,18.70
2022-08-19T02:20:23.912Z,18.70
2022-08-19T02:22:53.646Z,18.70
2022-08-19T02:25:22.048Z,18.60
2022-08-19T02:27:50.188Z,18.60
2022-08-19T02:30:20.808Z,18.60
2022-08-19T02:32:48.959Z,18.60
2022-08-19T02:35:17.148Z,18.60
2022-08-19T02:38:03.172Z,18.60
2022-08-19T02:40:34.868Z,18.70
2022-08-19T02:43:03.360Z,18.70
2022-08-19T02:45:36.756Z,18.60
2022-08-19T02:48:12.763Z,18.70
2022-08-19T02:50:55.777Z,18.70
2022-08-19T02:53:25.219Z,18.80
2022-08-19T02:55:53.947Z,18.90
2022-08-19T02:58:23.398Z,18.90
2022-08-19T03:00:56.981Z,19.00
2022-08-19T03:03:25.603Z,19.00
2022-08-19T03:05:56.717Z,19.10
2022-08-19T03:08:26.635Z,19.10
2022-08-19T03:10:55.151Z,19.10
2022-08-19T03:13:25.041Z,19.10
2022-08-19T03:15:54.811Z,19.00
2022-08-19T03:18:23.393Z,19.10
2022-08-19T03:20:55.572Z,19.00
2022-08-19T03:23:24.207Z,19.00
2022-08-19T03:26:05.622Z,19.10
2022-08-19T03:28:47.698Z,19.10
2022-08-19T03:31:41.562Z,19.10
2022-08-19T03:34:13.428Z,19.20
2022-08-19T03:36:42.353Z,19.20
2022-08-19T03:39:11.843Z,19.30
2022-08-19T03:41:45.535Z,19.30
2022-08-19T03:44:17.973Z,19.30
2022-08-19T03:46:49.051Z,19.30
2022-08-19T03:49:18.563Z,19.30
2022-08-19T03:51:48.110Z,19.40
2022-08-19T03:54:18.279Z,19.40
2022-08-19T03:56:48.796Z,19.40
2022-08-19T03:59:19.712Z,19.30
2022-08-19T04:01:49.675Z,19.30
2022-08-19T04:04:17.814Z,19.30
2022-08-19T04:06:48.895Z,19.30
2022-08-19T04:09:17.650Z,19.30
2022-08-19T04:11:49.218Z,19.30
2022-08-19T04:14:19.715Z,19.30
2022-08-19T04:16:50.362Z,19.30
2022-08-19T04:19:20.440Z,19.30
2022-08-19T04:21:51.943Z,19.30
2022-08-19T04:24:21.048Z,19.30
2022-08-19T04:26:49.846Z,19.30
2022-08-19T04:29:23.045Z,19.40
2022-08-19T04:31:54.543Z,19.40
2022-08-19T04:34:25.131Z,19.40
2022-08-19T04:36:55.071Z,19.40
2022-08-19T04:39:45.103Z,19.30
2022-08-19T04:42:31.209Z,19.30
2022-08-19T04:44:59.802Z,19.40
2022-08-19T04:47:47.909Z,19.40
2022-08-19T04:50:18.732Z,19.50
2022-08-19T04:52:47.131Z,19.50
2022-08-19T04:55:15.513Z,19.60
2022-08-19T04:57:43.672Z,19.60
2022-08-19T05:00:13.053Z,19.70
2022-08-19T05:02:42.630Z,19.80
2022-08-19T05:05:11.397Z,19.90
2022-08-19T05:07:42.073Z,20.00
2022-08-19T05:10:10.879Z,20.10
2022-08-19T05:12:39.315Z,20.20
2022-08-19T05:15:09.594Z,20.20
2022-08-19T05:17:39.150Z,20.30
2022-08-19T05:20:28.206Z,20.50
2022-08-19T05:22:56.739Z,20.70
2022-08-19T05:25:26.279Z,20.90
2022-08-19T05:27:54.417Z,21.00
2022-08-19T05:30:33.639Z,21.10
2022-08-19T05:33:12.305Z,21.10
2022-08-19T05:35:42.129Z,21.10
2022-08-19T05:38:11.928Z,21.10
2022-08-19T05:40:41.103Z,21.10
2022-08-19T05:43:10.179Z,21.00
2022-08-19T05:45:43.037Z,21.00
2022-08-19T05:48:12.400Z,21.00
2022-08-19T05:50:43.529Z,20.90
2022-08-19T05:53:11.749Z,20.90
2022-08-19T05:55:40.735Z,20.90
2022-08-19T05:58:09.227Z,20.80
2022-08-19T06:00:38.088Z,20.80
2022-08-19T06:03:12.794Z,20.70
2022-08-19T06:05:52.107Z,20.70
2022-08-19T06:08:34.636Z,20.60
2022-08-19T06:11:18.907Z,20.60
2022-08-19T06:13:51.876Z,20.60
2022-08-19T06:16:28.989Z,20.60
2022-08-19T06:18:58.940Z,20.60
2022-08-19T06:21:30.500Z,20.60
2022-08-19T06:24:00.120Z,20.60
2022-08-19T06:26:29.140Z,20.70
2022-08-19T06:28:57.494Z,20.70
2022-08-19T06:31:28.882Z,20.80
2022-08-19T06:33:57.420Z,20.80
2022-08-19T06:36:32.813Z,21.00
2022-08-19T06:39:02.468Z,21.10
2022-08-19T06:41:31.864Z,21.10
2022-08-19T06:44:00.240Z,21.20
2022-08-19T06:46:29.736Z,21.30
2022-08-19T06:49:02.677Z,21.30
2022-08-19T06:54:03.131Z,21.30
2022-08-19T06:56:35.612Z,21.30
2022-08-19T06:59:05.774Z,21.20
2022-08-19T07:01:38.517Z,21.20
2022-08-19T07:04:08.114Z,21.20
2022-08-19T07:06:44.377Z,21.20
2022-08-19T07:09:14.955Z,21.30
2022-08-19T07:11:48.256Z,21.40
2022-08-19T07:14:19.878Z,21.60
2022-08-19T07:16:49.922Z,21.70
2022-08-19T07:19:19.299Z,21.90
2022-08-19T07:21:49.913Z,21.90
2022-08-19T07:24:19.675Z,22.10
2022-08-19T07:26:51.787Z,22.10
2022-08-19T07:29:21.432Z,22.10
2022-08-19T07:31:53.142Z,22.20
2022-08-19T07:34:22.463Z,22.10
2022-08-19T07:36:53.283Z,22.00
2022-08-19T07:39:28.015Z,21.80
2022-08-19T07:41:57.298Z,21.80
2022-08-19T07:44:25.890Z,21.80
2022-08-19T07:46:57.787Z,21.90
2022-08-19T07:49:26.591Z,21.90
2022-08-19T07:51:57.942Z,22.10
2022-08-19T07:54:29.211Z,22.00
2022-08-19T07:56:57.919Z,21.90
2022-08-19T07:59:26.076Z,21.70
2022-08-19T08:01:54.886Z,21.60
2022-08-19T08:04:41.045Z,21.60
2022-08-19T08:07:31.450Z,21.50
2022-08-19T08:10:03.075Z,21.50
2022-08-19T08:12:35.292Z,21.50
2022-08-19T08:15:12.445Z,21.60
2022-08-19T08:17:49.327Z,21.60
2022-08-19T08:20:20.556Z,21.80
2022-08-19T08:23:07.681Z,21.80
2022-08-19T08:25:38.364Z,21.90
2022-08-19T08:28:09.652Z,22.00
2022-08-19T08:30:45.132Z,22.00
2022-08-19T08:33:13.911Z,22.00
2022-08-19T08:35:43.866Z,21.80
2022-08-19T08:38:13.867Z,21.90
2022-08-19T08:40:46.788Z,21.90
2022-08-19T08:43:23.876Z,22.00
2022-08-19T08:45:57.432Z,22.00
2022-08-19T08:48:34.400Z,22.00
2022-08-19T08:51:07.048Z,22.00
2022-08-19T08:53:41.851Z,21.90
2022-08-19T08:56:13.985Z,21.80
2022-08-19T08:58:55.320Z,21.70
2022-08-19T09:01:23.602Z,21.70
2022-08-19T09:03:53.585Z,21.70
2022-08-19T09:06:31.380Z,21.60
2022-08-19T09:09:11.858Z,21.60
2022-08-19T09:11:51.850Z,21.50
2022-08-19T09:14:51.841Z,21.60
2022-08-19T09:17:29.185Z,21.70
2022-08-19T09:20:01.921Z,21.80
2022-08-19T09:22:30.121Z,21.70
2022-08-19T09:24:59.712Z,21.70
2022-08-19T09:27:42.069Z,21.60
2022-08-19T09:30:20.302Z,21.60
2022-08-19T09:32:52.863Z,21.60
2022-08-19T09:35:24.270Z,21.50
2022-08-19T09:37:57.362Z,21.70
2022-08-19T09:40:30.140Z,21.90
2022-08-19T09:43:11.408Z,22.20
2022-08-19T09:45:42.231Z,22.30
2022-08-19T09:48:11.913Z,22.50
2022-08-19T09:50:51.979Z,22.60
2022-08-19T09:53:25.405Z,22.70
2022-08-19T09:55:57.235Z,22.90
2022-08-19T09:58:28.694Z,23.30
2022-08-19T10:00:57.393Z,23.40
2022-08-19T10:03:30.143Z,23.40
2022-08-19T10:06:01.067Z,23.20
2022-08-19T10:08:33.961Z,23.10
2022-08-19T10:11:28.497Z,22.80
2022-08-19T10:13:54.754Z,22.50
2022-08-19T10:16:30.028Z,22.50
2022-08-19T10:18:59.358Z,22.40
2022-08-19T10:21:29.781Z,22.30
2022-08-19T10:24:02.778Z,22.20
2022-08-19T10:26:35.554Z,22.20
2022-08-19T10:29:06.011Z,22.20
2022-08-19T10:32:01.139Z,22.30
2022-08-19T10:34:28.397Z,22.40
2022-08-19T10:37:00.493Z,22.80
2022-08-19T10:39:31.318Z,23.00
2022-08-19T10:42:01.663Z,22.90
2022-08-19T10:44:32.217Z,22.90
2022-08-19T10:47:01.611Z,22.90
2022-08-19T10:49:30.099Z,22.80
2022-08-19T10:52:19.035Z,22.70
2022-08-19T10:55:08.485Z,22.60
2022-08-19T10:58:01.368Z,22.40
2022-08-19T11:00:27.080Z,22.50
2022-08-19T11:02:55.241Z,22.90
2022-08-19T11:05:24.215Z,23.20
2022-08-19T11:07:53.206Z,23.50
2022-08-19T11:10:22.964Z,23.70
2022-08-19T11:12:55.850Z,23.80
2022-08-19T11:15:24.315Z,23.80
2022-08-19T11:17:55.376Z,23.70
2022-08-19T11:20:24.652Z,23.40
2022-08-19T11:22:54.573Z,23.40
2022-08-19T11:25:23.345Z,23.50
2022-08-19T11:27:53.265Z,23.70
2022-08-19T11:30:21.844Z,23.90
2022-08-19T11:32:50.506Z,24.00
2022-08-19T11:35:21.162Z,24.00
2022-08-19T11:37:49.347Z,23.90
2022-08-19T11:40:17.791Z,23.90
2022-08-19T11:42:58.192Z,24.00
2022-08-19T11:45:30.183Z,24.10
2022-08-19T11:47:58.429Z,24.10
2022-08-19T11:50:27.218Z,24.20
2022-08-19T11:52:56.841Z,24.30
2022-08-19T11:55:25.665Z,24.50
2022-08-19T11:57:53.995Z,24.70
2022-08-19T12:00:22.581Z,24.80
2022-08-19T12:02:52.107Z,25.10
2022-08-19T12:05:20.431Z,25.40
2022-08-19T12:07:48.602Z,25.60
2022-08-19T12:10:18.973Z,26.20
2022-08-19T12:12:56.402Z,26.60
2022-08-19T12:15:37.118Z,26.70
2022-08-19T12:18:07.425Z,26.70
2022-08-19T12:20:37.810Z,26.60
2022-08-19T12:23:06.444Z,26.70
2022-08-19T12:25:35.467Z,26.70
2022-08-19T12:28:04.605Z,26.60
2022-08-19T12:30:33.228Z,26.50
2022-08-19T12:33:01.389Z,26.50
2022-08-19T12:35:31.542Z,26.40
2022-08-19T12:38:00.985Z,26.50
2022-08-19T12:40:29.397Z,26.60
2022-08-19T12:42:57.580Z,26.70
2022-08-19T12:45:25.779Z,26.70
2022-08-19T12:47:55.345Z,26.80
2022-08-19T12:50:23.882Z,27.00
2022-08-19T12:52:53.659Z,27.30
2022-08-19T12:55:21.983Z,27.50
2022-08-19T12:57:51.463Z,27.70
2022-08-19T13:00:22.829Z,28.30
2022-08-19T13:02:53.748Z,28.80
2022-08-19T13:05:23.838Z,29.40
2022-08-19T13:07:56.826Z,29.80
2022-08-19T13:10:28.809Z,29.60
2022-08-19T13:12:57.847Z,29.20
2022-08-19T13:15:26.309Z,28.90
2022-08-19T13:17:56.970Z,28.80
2022-08-19T13:20:26.287Z,29.10
2022-08-19T13:22:58.152Z,29.30
2022-08-19T13:25:27.588Z,29.70
2022-08-19T13:27:56.259Z,30.50
2022-08-19T13:30:42.079Z,31.00
2022-08-19T13:33:15.963Z,31.00
2022-08-19T13:35:48.852Z,30.80
2022-08-19T13:38:21.580Z,30.80
2022-08-19T13:40:51.503Z,30.50
2022-08-19T13:43:23.821Z,30.10
2022-08-19T13:45:57.451Z,29.30
2022-08-19T13:48:27.997Z,28.50
2022-08-19T13:50:56.789Z,27.90
2022-08-19T13:53:26.851Z,27.30
2022-08-19T13:55:55.470Z,27.00
2022-08-19T13:58:24.368Z,26.80
2022-08-19T14:00:52.663Z,26.90
2022-08-19T14:03:20.815Z,26.90
2022-08-19T14:05:49.037Z,27.00
2022-08-19T14:08:17.255Z,27.00
2022-08-19T14:10:47.338Z,26.90
2022-08-19T14:13:18.301Z,27.00
2022-08-19T14:15:47.067Z,26.90
2022-08-19T14:18:15.522Z,26.70
2022-08-19T14:20:43.722Z,26.80
2022-08-19T14:23:13.360Z,26.80
2022-08-19T14:25:41.648Z,26.80
2022-08-19T14:28:11.232Z,26.80
2022-08-19T14:30:39.937Z,26.80
2022-08-19T14:33:09.517Z,26.90
2022-08-19T14:35:37.786Z,27.00
2022-08-19T14:38:07.087Z,27.00
2022-08-19T14:40:35.838Z,26.80
2022-08-19T14:43:06.557Z,27.00
2022-08-19T14:45:38.503Z,27.20
2022-08-19T14:48:19.381Z,27.30
2022-08-19T14:50:48.792Z,27.40
2022-08-19T14:53:18.813Z,27.60
2022-08-19T14:55:47.750Z,27.40
2022-08-19T14:58:29.231Z,27.50
2022-08-19T15:01:01.150Z,28.00
2022-08-19T15:03:30.118Z,28.50
2022-08-19T15:05:59.100Z,28.50
2022-08-19T15:08:28.395Z,28.10
2022-08-19T15:10:56.652Z,27.90
2022-08-19T15:13:26.039Z,27.60
2022-08-19T15:15:54.676Z,27.20
2022-08-19T15:18:24.631Z,26.90
2022-08-19T15:20:52.976Z,26.60
2022-08-19T15:23:22.755Z,26.30
2022-08-19T15:25:55.845Z,26.00
2022-08-19T15:28:26.082Z,25.80
2022-08-19T15:30:54.687Z,25.70
2022-08-19T15:33:24.227Z,25.60
2022-08-19T15:35:52.654Z,25.50
2022-08-19T15:38:22.158Z,25.30
2022-08-19T15:40:51.166Z,25.20
2022-08-19T15:43:21.805Z,25.00
2022-08-19T15:45:50.308Z,24.90
2022-08-19T15:48:18.476Z,25.10
2022-08-19T15:50:48.191Z,25.30
2022-08-19T15:53:17.132Z,25.50
2022-08-19T15:55:48.653Z,25.60
2022-08-19T15:58:34.918Z,25.70
2022-08-19T16:01:27.012Z,25.80
2022-08-19T16:04:15.663Z,25.70
2022-08-19T16:06:47.745Z,25.50
2022-08-19T16:09:17.241Z,25.50
2022-08-19T16:11:56.566Z,25.40
2022-08-19T16:14:25.883Z,25.40
2022-08-19T16:16:54.972Z,25.50
2022-08-19T16:19:23.563Z,25.40
2022-08-19T16:21:55.703Z,25.10
2022-08-19T16:24:27.747Z,24.90
2022-08-19T16:26:56.707Z,24.50
2022-08-19T16:29:33.886Z,24.20
2022-08-19T16:32:03.601Z,24.10
2022-08-19T16:34:32.210Z,24.00
2022-08-19T16:37:03.272Z,23.90
2022-08-19T16:39:31.650Z,23.90
2022-08-19T16:42:01.017Z,23.90
2022-08-19T16:44:30.195Z,23.80
2022-08-19T16:46:59.708Z,23.60
2022-08-19T16:49:54.289Z,23.40
2022-08-19T16:52:18.723Z,23.10
2022-08-19T16:54:47.982Z,22.90
2022-08-19T16:57:16.574Z,22.80
2022-08-19T16:59:49.229Z,22.60
2022-08-19T17:02:18.403Z,22.60
2022-08-19T17:04:57.301Z,22.40
2022-08-19T17:07:28.843Z,22.20
2022-08-19T17:09:57.665Z,22.20
2022-08-19T17:12:30.203Z,22.20
2022-08-19T17:15:00.951Z,22.10
2022-08-19T17:17:29.809Z,22.10
2022-08-19T17:19:59.205Z,22.10
2022-08-19T17:22:29.761Z,22.10
2022-08-19T17:24:58.708Z,22.00
2022-08-19T17:27:32.009Z,21.90
2022-08-19T17:30:02.911Z,21.80
2022-08-19T17:32:35.122Z,21.70
2022-08-19T17:35:04.771Z,21.60
2022-08-19T17:37:35.038Z,21.50
2022-08-19T17:40:04.028Z,21.40
2022-08-19T17:42:32.460Z,21.40
2022-08-19T17:45:00.852Z,21.30
2022-08-19T17:47:29.497Z,21.20
2022-08-19T17:49:57.811Z,21.10
2022-08-19T17:52:26.187Z,21.10
2022-08-19T17:54:56.462Z,21.00
2022-08-19T17:57:24.629Z,21.00
2022-08-19T17:59:53.097Z,20.90
2022-08-19T18:02:22.002Z,20.90
2022-08-19T18:04:50.639Z,20.80
2022-08-19T18:07:21.523Z,20.80
2022-08-19T18:09:52.018Z,20.70
2022-08-19T18:12:26.554Z,20.70
2022-08-19T18:14:55.129Z,20.70
2022-08-19T18:17:24.496Z,20.70
2022-08-19T18:19:52.708Z,20.70
2022-08-19T18:22:27.371Z,20.70
2022-08-19T18:24:56.419Z,20.60
2022-08-19T18:27:27.066Z,20.60
2022-08-19T18:29:59.623Z,20.60
2022-08-19T18:32:32.381Z,20.60
2022-08-19T18:35:02.516Z,20.50
2022-08-19T18:37:30.730Z,20.40
2022-08-19T18:40:16.585Z,20.40
2022-08-19T18:43:18.799Z,20.40
2022-08-19T18:46:07.189Z,20.40
2022-08-19T18:48:53.374Z,20.40
2022-08-19T18:51:24.197Z,20.40
2022-08-19T18:53:57.289Z,20.30
2022-08-19T18:56:28.910Z,20.30
2022-08-19T18:58:58.768Z,20.30
2022-08-19T19:01:31.406Z,20.30
2022-08-19T19:04:02.741Z,20.20
2022-08-19T19:06:35.869Z,20.20
2022-08-19T19:09:04.421Z,20.20
2022-08-19T19:11:35.386Z,20.10
2022-08-19T19:14:13.879Z,20.10
2022-08-19T19:16:51.456Z,20.10
2022-08-19T19:19:20.479Z,20.10
2022-08-19T19:21:53.162Z,20.10
2022-08-19T19:24:23.640Z,20.00
2022-08-19T19:26:53.630Z,20.00
2022-08-19T19:29:23.413Z,20.00
2022-08-19T19:31:52.992Z,19.90
2022-08-19T19:34:28.839Z,19.80
2022-08-19T19:36:58.555Z,19.70
2022-08-19T19:39:44.833Z,19.60
2022-08-19T19:42:20.349Z,19.60
2022-08-19T19:44:52.107Z,19.50
2022-08-19T19:47:28.036Z,19.50
2022-08-19T19:50:15.291Z,19.40
2022-08-19T19:52:46.630Z,19.30
2022-08-19T19:55:18.403Z,19.30
2022-08-19T19:57:47.151Z,19.30
2022-08-19T20:00:19.105Z,19.30
2022-08-19T20:02:50.218Z,19.30
2022-08-19T20:05:21.409Z,19.30
2022-08-19T20:08:09.603Z,19.30
2022-08-19T20:10:38.487Z,19.20
2022-08-19T20:13:07.847Z,19.30
2022-08-19T20:15:42.418Z,19.30
2022-08-19T20:18:11.456Z,19.30
2022-08-19T20:20:40.316Z,19.30
2022-08-19T20:23:09.194Z,19.20
2022-08-19T20:25:39.464Z,19.20
2022-08-19T20:28:07.648Z,19.20
2022-08-19T20:30:38.476Z,19.20
2022-08-19T20:33:13.801Z,19.20
2022-08-19T20:35:42.753Z,19.30
2022-08-19T20:38:11.008Z,19.30
2022-08-19T20:40:40.181Z,19.30
2022-08-19T20:43:13.518Z,19.30
2022-08-19T20:45:43.615Z,19.30
2022-08-19T20:48:12.530Z,19.20
2022-08-19T20:50:40.859Z,19.30
2022-08-19T20:53:13.746Z,19.30
2022-08-19T20:55:45.471Z,19.30
2022-08-19T20:58:14.357Z,19.20
2022-08-19T21:00:45.583Z,19.20
2022-08-19T21:03:17.214Z,19.20
2022-08-19T21:05:46.795Z,19.20
2022-08-19T21:08:15.665Z,19.20
2022-08-19T21:10:44.686Z,19.20
2022-08-19T21:13:13.003Z,19.10
2022-08-19T21:15:43.294Z,19.10
2022-08-19T21:18:14.485Z,19.10
2022-08-19T21:20:43.718Z,19.10
2022-08-19T21:23:15.963Z,19.10
2022-08-19T21:25:54.175Z,19.10
2022-08-19T21:28:35.744Z,19.10
2022-08-19T21:31:05.390Z,19.10
2022-08-19T21:33:35.145Z,19.10
2022-08-19T21:36:03.833Z,19.10
2022-08-19T21:38:32.355Z,19.10
2022-08-19T21:41:00.616Z,19.10
2022-08-19T21:43:34.576Z,19.10
2022-08-19T21:46:02.874Z,19.10
2022-08-19T21:48:31.053Z,19.00
2022-08-19T21:51:00.709Z,19.00
2022-08-19T21:53:34.003Z,18.90
2022-08-19T21:56:03.089Z,18.90
2022-08-19T21:58:31.419Z,18.80
2022-08-19T22:01:00.225Z,18.80
2022-08-19T22:03:28.709Z,18.70
2022-08-19T22:05:58.618Z,18.60
2022-08-19T22:08:28.318Z,18.60
2022-08-19T22:10:56.480Z,18.60
2022-08-19T22:13:25.003Z,18.60
2022-08-19T22:15:55.043Z,18.50
2022-08-19T22:18:24.302Z,18.50
2022-08-19T22:20:52.431Z,18.50
2022-08-19T22:23:20.887Z,18.50
2022-08-19T22:25:50.417Z,18.50
2022-08-19T22:28:27.882Z,18.40
2022-08-19T22:30:57.105Z,18.40
2022-08-19T22:33:27.778Z,18.30
2022-08-19T22:35:56.000Z,18.30
2022-08-19T22:38:25.056Z,18.30
2022-08-19T22:40:56.459Z,18.30
2022-08-19T22:43:28.551Z,18.30
2022-08-19T22:45:58.105Z,18.30
2022-08-19T22:48:29.020Z,18.20
2022-08-19T22:51:15.375Z,18.20
2022-08-19T22:53:46.624Z,18.20
2022-08-19T22:56:18.704Z,18.20
2022-08-19T22:58:49.998Z,18.20
2022-08-19T23:01:27.286Z,18.20
2022-08-19T23:03:58.485Z,18.20
2022-08-19T23:06:33.837Z,18.20
2022-08-19T23:09:05.040Z,18.20
2022-08-19T23:11:41.724Z,18.20
2022-08-19T23:14:12.584Z,18.20
2022-08-19T23:16:41.959Z,18.20
2022-08-19T23:19:10.723Z,18.20
2022-08-19T23:21:39.498Z,18.20
2022-08-19T23:24:08.193Z,18.20
2022-08-19T23:26:37.878Z,18.20
2022-08-19T23:29:24.182Z,18.20
2022-08-19T23:31:52.413Z,18.20
2022-08-19T23:34:20.588Z,18.20
2022-08-19T23:36:50.698Z,18.20
2022-08-19T23:39:19.320Z,18.20
2022-08-19T23:41:49.043Z,18.10
2022-08-19T23:44:17.440Z,18.10
2022-08-19T23:46:55.067Z,18.10
2022-08-19T23:49:25.769Z,18.10
2022-08-19T23:51:55.065Z,18.00
2022-08-19T23:54:23.556Z,18.10
2022-08-19T23:57:14.400Z,18.10
2022-08-19T23:59:45.300Z,18.10
